Eira — OJJP — position and weather

sailwx.info

Track history (hours):
 
Tides and Currents Weather Stations Pressure Air Temp Water Temp Dewpoint Dewpoint Depression Visibility Wind Speed Wind Dir Waves Ship Positions

Eira

Last reported at 2015-Mar-28 19:33 UTC. Time now 2015-Mar-29 12:32 UTC.
Position N 60°11' E 024°58'.

Length 157 m; draft 8.9 m.

Type: Cargo ship. MMSI: 230935000.

Date/timePositionNaut miles runAvg speedWind from/ knotsBaromVisibWave heightAir tempDewpointWater temp
2015-Mar-28 19:33N 60°11' E 024°58'47 7.8
2015-Mar-28 13:33N 60°01' E 026°29'10 9.7
2015-Mar-28 12:33N 60°00' E 026°49'8 0.3
2015-Mar-27 05:21N 59°59' E 027°04'8 9.5
2015-Mar-27 04:28N 59°59' E 026°48'9 9.4
2015-Mar-27 03:32N 59°58' E 026°30'9 9.0
2015-Mar-27 02:30N 59°56' E 026°12'9 9.2
2015-Mar-27 01:33N 59°54' E 025°55'4 0.2
2015-Mar-26 00:06N 59°58' E 025°59'15 9.8
2015-Mar-25 22:33N 60°01' E 026°29'10 9.7
2015-Mar-25 21:33N 60°01' E 026°48'8 0.2
2015-Mar-24 04:27N 59°58' E 027°02'910.5
2015-Mar-24 03:33N 59°59' E 026°44'1210.7
2015-Mar-24 02:27N 59°57' E 026°20'43 8.1
2015-Mar-23 21:11N 60°10' E 024°59'1 0.8
2015-Mar-23 20:13N 60°11' E 024°58'0 0.0
2015-Mar-23 19:10N 60°11' E 024°58'0 0.0
2015-Mar-23 17:19N 60°11' E 024°58'0 0.0
2015-Mar-23 16:28N 60°11' E 024°58'0 0.0
2015-Mar-23 15:31N 60°11' E 024°58'0 0.0
2015-Mar-23 14:34N 60°11' E 024°58'0 0.0
2015-Mar-23 13:25N 60°11' E 024°58'0 0.0
2015-Mar-23 12:28N 60°11' E 024°58'0 0.0
2015-Mar-23 11:31N 60°11' E 024°58'0 0.0
2015-Mar-23 10:16N 60°11' E 024°58'0 0.0
2015-Mar-23 09:19N 60°11' E 024°58'0 0.0
2015-Mar-23 08:31N 60°11' E 024°58'0 0.0
2015-Mar-23 07:34N 60°11' E 024°58'0 0.0
2015-Mar-23 06:28N 60°11' E 024°58'0 0.0
2015-Mar-23 05:34N 60°11' E 024°58'49 6.1
2015-Mar-22 21:33N 60°01' E 026°34'9 8.8
2015-Mar-22 20:33N 60°00' E 026°51'18 8.5
2015-Mar-22 18:26N 60°06' E 027°25'21 0.5
2015-Mar-21 00:13N 59°59' E 026°46'710.7
2015-Mar-20 23:33N 59°58' E 026°32'10 8.3
2015-Mar-20 22:24N 60°08' E 026°31'0 0.5
2015-Mar-20 21:31N 60°08' E 026°30'0 0.0
2015-Mar-20 20:31N 60°08' E 026°30'0 0.0
2015-Mar-20 19:31N 60°08' E 026°30'0 0.1
2015-Mar-20 18:31N 60°08' E 026°30'0 0.0
2015-Mar-20 17:31N 60°08' E 026°30'0 0.0
2015-Mar-20 16:31N 60°08' E 026°30'0 0.0
2015-Mar-20 15:31N 60°08' E 026°30'0 0.1
2015-Mar-20 14:31N 60°08' E 026°30'0 0.0
2015-Mar-20 13:31N 60°08' E 026°30'0 0.0
2015-Mar-20 12:31N 60°08' E 026°30'0 0.0
2015-Mar-20 11:31N 60°08' E 026°30'0 0.0
2015-Mar-20 10:31N 60°08' E 026°30'0 0.0
2015-Mar-20 09:31N 60°08' E 026°30'0 0.0
2015-Mar-20 08:32N 60°08' E 026°30'3 3.0
2015-Mar-20 07:33N 60°07' E 026°35'9 9.2
2015-Mar-20 06:33N 60°02' E 026°50'17 8.5
2015-Mar-20 04:31N 60°06' E 027°24'  
Track history (hours):
 
Tides and Currents Weather Stations Pressure Air Temp Water Temp Dewpoint Dewpoint Depression Visibility Wind Speed Wind Dir Waves Ship Positions

Eira

Last reported at 2015-Mar-28 19:33 UTC. Time now 2015-Mar-29 12:32 UTC.
Position N 60°11' E 024°58'.

Length 157 m; draft 8.9 m.

Type: Cargo ship. MMSI: 230935000.

Date/timePositionNaut miles runAvg speedWind from/ knotsBaromVisibWave heightAir tempDewpointWater temp
2015-Mar-28 19:33N 60°11' E 024°58'47 7.8
2015-Mar-28 13:33N 60°01' E 026°29'10 9.7
2015-Mar-28 12:33N 60°00' E 026°49'8 0.3
2015-Mar-27 05:21N 59°59' E 027°04'8 9.5
2015-Mar-27 04:28N 59°59' E 026°48'9 9.4
2015-Mar-27 03:32N 59°58' E 026°30'9 9.0
2015-Mar-27 02:30N 59°56' E 026°12'9 9.2
2015-Mar-27 01:33N 59°54' E 025°55'4 0.2
2015-Mar-26 00:06N 59°58' E 025°59'15 9.8
2015-Mar-25 22:33N 60°01' E 026°29'10 9.7
2015-Mar-25 21:33N 60°01' E 026°48'8 0.2
2015-Mar-24 04:27N 59°58' E 027°02'910.5
2015-Mar-24 03:33N 59°59' E 026°44'1210.7
2015-Mar-24 02:27N 59°57' E 026°20'43 8.1
2015-Mar-23 21:11N 60°10' E 024°59'1 0.8
2015-Mar-23 20:13N 60°11' E 024°58'0 0.0
2015-Mar-23 19:10N 60°11' E 024°58'0 0.0
2015-Mar-23 17:19N 60°11' E 024°58'0 0.0
2015-Mar-23 16:28N 60°11' E 024°58'0 0.0
2015-Mar-23 15:31N 60°11' E 024°58'0 0.0
2015-Mar-23 14:34N 60°11' E 024°58'0 0.0
2015-Mar-23 13:25N 60°11' E 024°58'0 0.0
2015-Mar-23 12:28N 60°11' E 024°58'0 0.0
2015-Mar-23 11:31N 60°11' E 024°58'0 0.0
2015-Mar-23 10:16N 60°11' E 024°58'0 0.0
2015-Mar-23 09:19N 60°11' E 024°58'0 0.0
2015-Mar-23 08:31N 60°11' E 024°58'0 0.0
2015-Mar-23 07:34N 60°11' E 024°58'0 0.0
2015-Mar-23 06:28N 60°11' E 024°58'0 0.0
2015-Mar-23 05:34N 60°11' E 024°58'49 6.1
2015-Mar-22 21:33N 60°01' E 026°34'9 8.8
2015-Mar-22 20:33N 60°00' E 026°51'18 8.5
2015-Mar-22 18:26N 60°06' E 027°25'21 0.5
2015-Mar-21 00:13N 59°59' E 026°46'710.7
2015-Mar-20 23:33N 59°58' E 026°32'10 8.3
2015-Mar-20 22:24N 60°08' E 026°31'0 0.5
2015-Mar-20 21:31N 60°08' E 026°30'0 0.0
2015-Mar-20 20:31N 60°08' E 026°30'0 0.0
2015-Mar-20 19:31N 60°08' E 026°30'0 0.1
2015-Mar-20 18:31N 60°08' E 026°30'0 0.0
2015-Mar-20 17:31N 60°08' E 026°30'0 0.0
2015-Mar-20 16:31N 60°08' E 026°30'0 0.0
2015-Mar-20 15:31N 60°08' E 026°30'0 0.1
2015-Mar-20 14:31N 60°08' E 026°30'0 0.0
2015-Mar-20 13:31N 60°08' E 026°30'0 0.0
2015-Mar-20 12:31N 60°08' E 026°30'0 0.0
2015-Mar-20 11:31N 60°08' E 026°30'0 0.0
2015-Mar-20 10:31N 60°08' E 026°30'0 0.0
2015-Mar-20 09:31N 60°08' E 026°30'0 0.0
2015-Mar-20 08:32N 60°08' E 026°30'3 3.0
2015-Mar-20 07:33N 60°07' E 026°35'9 9.2
2015-Mar-20 06:33N 60°02' E 026°50'17 8.5
2015-Mar-20 04:31N 60°06' E 027°24'  

Dump ship's entire track history